createdAt,value
2019-01-25T00:01:18.286Z,-2.01
2019-01-25T00:03:45.916Z,-2.04
2019-01-25T00:06:13.595Z,-2.10
2019-01-25T00:08:41.156Z,-2.16
2019-01-25T00:11:08.707Z,-2.20
2019-01-25T00:13:36.461Z,-2.30
2019-01-25T00:16:04.799Z,-2.42
2019-01-25T00:18:32.670Z,-2.56
2019-01-25T00:21:00.272Z,-2.62
2019-01-25T00:23:27.796Z,-2.65
2019-01-25T00:25:55.326Z,-2.72
2019-01-25T00:28:22.925Z,-2.78
2019-01-25T00:30:50.578Z,-2.84
2019-01-25T00:33:19.298Z,-2.96
2019-01-25T00:35:46.963Z,-2.96
2019-01-25T00:38:14.642Z,-3.18
2019-01-25T00:40:42.396Z,-3.08
2019-01-25T00:43:10.153Z,-3.11
2019-01-25T00:45:37.869Z,-3.18
2019-01-25T00:48:05.582Z,-3.22
2019-01-25T00:50:33.412Z,-3.55
2019-01-25T00:53:01.141Z,-3.68
2019-01-25T00:55:28.811Z,-3.73
2019-01-25T00:57:56.481Z,-3.65
2019-01-25T01:00:25.108Z,-3.75
2019-01-25T01:02:55.770Z,-3.82
2019-01-25T01:05:23.513Z,-3.91
2019-01-25T01:07:51.674Z,-3.98
2019-01-25T01:10:21.335Z,-4.07
2019-01-25T01:12:49.711Z,-4.09
2019-01-25T01:15:17.495Z,-4.18
2019-01-25T01:17:45.364Z,-4.19
2019-01-25T01:20:15.000Z,-4.21
2019-01-25T01:22:42.733Z,-4.22
2019-01-25T01:25:11.607Z,-4.24
2019-01-25T01:27:39.313Z,-4.42
2019-01-25T01:30:09.752Z,-4.76
2019-01-25T01:32:37.307Z,-4.91
2019-01-25T01:35:05.175Z,-4.87
2019-01-25T01:37:32.743Z,-5.10
2019-01-25T01:40:00.504Z,-5.14
2019-01-25T01:42:28.089Z,-5.10
2019-01-25T01:44:55.727Z,-5.07
2019-01-25T01:47:23.367Z,-5.11
2019-01-25T01:49:51.160Z,-5.04
2019-01-25T01:52:18.728Z,-5.05
2019-01-25T01:54:46.420Z,-5.07
2019-01-25T01:57:13.987Z,-5.06
2019-01-25T01:59:44.551Z,-5.17
2019-01-25T02:02:12.785Z,-5.40
2019-01-25T02:04:40.374Z,-5.38
2019-01-25T02:07:08.381Z,-5.33
2019-01-25T02:09:36.064Z,-5.28
2019-01-25T02:12:03.608Z,-5.43
2019-01-25T02:14:31.281Z,-5.45
2019-01-25T02:16:58.957Z,-5.46
2019-01-25T02:19:26.528Z,-5.54
2019-01-25T02:21:54.127Z,-5.81
2019-01-25T02:24:21.763Z,-5.75
2019-01-25T02:26:49.380Z,-5.72
2019-01-25T02:29:17.010Z,-5.69
2019-01-25T02:31:44.804Z,-5.76
2019-01-25T02:34:12.499Z,-5.85
2019-01-25T02:36:41.947Z,-6.03
2019-01-25T02:39:09.528Z,-6.23
2019-01-25T02:41:37.227Z,-6.36
2019-01-25T02:44:04.940Z,-6.23
2019-01-25T02:46:32.540Z,-6.15
2019-01-25T02:49:00.161Z,-6.31
2019-01-25T02:51:27.696Z,-6.32
2019-01-25T02:53:55.267Z,-6.15
2019-01-25T02:56:22.952Z,-6.29
2019-01-25T02:58:50.520Z,-6.42
2019-01-25T03:01:18.055Z,-6.36
2019-01-25T03:03:45.723Z,-6.55
2019-01-25T03:06:13.317Z,-6.50
2019-01-25T03:08:40.871Z,-6.44
2019-01-25T03:11:08.635Z,-6.57
2019-01-25T03:13:36.250Z,-6.39
2019-01-25T03:16:03.764Z,-6.26
2019-01-25T03:18:31.378Z,-6.48
2019-01-25T03:20:58.963Z,-6.48
2019-01-25T03:23:26.488Z,-6.41
2019-01-25T03:25:56.042Z,-6.48
2019-01-25T03:28:23.625Z,-6.38
2019-01-25T03:30:51.293Z,-6.43
2019-01-25T03:33:18.905Z,-6.42
2019-01-25T03:35:46.513Z,-6.62
2019-01-25T03:38:14.224Z,-6.82
2019-01-25T03:40:42.065Z,-6.70
2019-01-25T03:43:09.764Z,-6.76
2019-01-25T03:45:37.353Z,-6.74
2019-01-25T03:48:05.184Z,-6.77
2019-01-25T03:50:32.879Z,-6.75
2019-01-25T03:53:00.486Z,-6.80
2019-01-25T03:55:28.190Z,-6.78
2019-01-25T03:57:55.865Z,-6.75
2019-01-25T04:00:26.954Z,-6.79
2019-01-25T04:02:54.570Z,-7.04
2019-01-25T04:05:22.271Z,-7.04
2019-01-25T04:07:49.888Z,-6.89
2019-01-25T04:10:19.606Z,-6.93
2019-01-25T04:12:47.282Z,-7.05
2019-01-25T04:15:22.886Z,-6.94
2019-01-25T04:17:50.569Z,-6.97
2019-01-25T04:20:18.386Z,-6.94
2019-01-25T04:22:46.091Z,-6.86
2019-01-25T04:25:15.952Z,-6.79
2019-01-25T04:27:43.700Z,-6.67
2019-01-25T04:30:14.440Z,-6.60
2019-01-25T04:32:42.163Z,-6.49
2019-01-25T04:35:09.872Z,-6.58
2019-01-25T04:37:37.577Z,-6.42
2019-01-25T04:40:07.371Z,-6.47
2019-01-25T04:42:35.066Z,-6.39
2019-01-25T04:45:03.198Z,-6.36
2019-01-25T04:47:30.844Z,-6.36
2019-01-25T04:49:58.537Z,-6.39
2019-01-25T04:52:26.182Z,-6.39
2019-01-25T04:54:53.898Z,-6.28
2019-01-25T04:57:21.622Z,-6.11
2019-01-25T04:59:49.314Z,-5.99
2019-01-25T05:02:17.019Z,-5.96
2019-01-25T05:04:44.723Z,-5.91
2019-01-25T05:07:12.298Z,-5.95
2019-01-25T05:09:40.051Z,-5.84
2019-01-25T05:12:07.811Z,-5.86
2019-01-25T05:14:35.589Z,-5.99
2019-01-25T05:17:03.780Z,-6.09
2019-01-25T05:19:38.101Z,-5.90
2019-01-25T05:22:06.303Z,-6.03
2019-01-25T05:24:34.133Z,-5.97
2019-01-25T05:27:03.128Z,-5.87
2019-01-25T05:29:53.871Z,-5.76
2019-01-25T05:32:21.680Z,-5.80
2019-01-25T05:34:49.344Z,-5.83
2019-01-25T05:37:17.049Z,-5.96
2019-01-25T05:39:44.707Z,-5.89
2019-01-25T05:42:12.396Z,-5.85
2019-01-25T05:44:39.961Z,-5.96
2019-01-25T05:47:10.929Z,-5.94
2019-01-25T05:49:38.591Z,-5.99
2019-01-25T05:52:10.229Z,-5.99
2019-01-25T05:54:37.841Z,-5.98
2019-01-25T05:57:05.480Z,-5.79
2019-01-25T05:59:33.082Z,-5.70
2019-01-25T06:02:00.849Z,-5.61
2019-01-25T06:04:33.395Z,-5.59
2019-01-25T06:07:01.019Z,-5.55
2019-01-25T06:09:28.637Z,-5.51
2019-01-25T06:11:56.348Z,-5.62
2019-01-25T06:14:23.882Z,-5.59
2019-01-25T06:16:51.531Z,-5.66
2019-01-25T06:19:19.127Z,-5.66
2019-01-25T06:21:46.866Z,-5.55
2019-01-25T06:24:14.452Z,-5.56
2019-01-25T06:26:44.527Z,-5.41
2019-01-25T06:29:12.115Z,-5.28
2019-01-25T06:31:39.927Z,-5.30
2019-01-25T06:34:08.214Z,-5.25
2019-01-25T06:36:35.865Z,-5.23
2019-01-25T06:39:06.922Z,-5.15
2019-01-25T06:41:34.698Z,-5.21
2019-01-25T06:44:02.451Z,-5.19
2019-01-25T06:46:30.111Z,-5.16
2019-01-25T06:48:57.878Z,-5.18
2019-01-25T06:51:25.602Z,-5.23
2019-01-25T06:53:53.353Z,-5.11
2019-01-25T06:56:21.159Z,-5.09
2019-01-25T06:59:06.932Z,-4.98
2019-01-25T07:01:54.886Z,-4.94
2019-01-25T07:04:22.614Z,-4.90
2019-01-25T07:06:50.302Z,-4.90
2019-01-25T07:09:18.026Z,-4.88
2019-01-25T07:11:51.597Z,-4.88
2019-01-25T07:14:15.419Z,-4.78
2019-01-25T07:16:43.152Z,-4.69
2019-01-25T07:19:10.815Z,-4.64
2019-01-25T07:21:38.392Z,-4.63
2019-01-25T07:24:06.149Z,-4.56
2019-01-25T07:26:33.895Z,-4.62
2019-01-25T07:29:01.541Z,-4.51
2019-01-25T07:31:29.129Z,-4.58
2019-01-25T07:33:56.800Z,-4.62
2019-01-25T07:36:24.499Z,-4.61
2019-01-25T07:38:52.155Z,-4.56
2019-01-25T07:41:19.895Z,-4.53
2019-01-25T07:43:47.622Z,-4.49
2019-01-25T07:46:15.265Z,-4.43
2019-01-25T07:48:43.087Z,-4.44
2019-01-25T07:51:10.624Z,-4.30
2019-01-25T07:53:38.289Z,-4.15
2019-01-25T07:56:05.958Z,-4.08
2019-01-25T07:58:33.694Z,-4.00
2019-01-25T08:01:01.243Z,-4.03
2019-01-25T08:03:28.988Z,-4.13
2019-01-25T08:05:56.641Z,-4.04
2019-01-25T08:08:24.314Z,-3.99
2019-01-25T08:10:51.923Z,-3.82
2019-01-25T08:13:19.616Z,-3.87
2019-01-25T08:15:47.243Z,-3.78
2019-01-25T08:18:15.020Z,-3.72
2019-01-25T08:20:42.584Z,-3.48
2019-01-25T08:23:10.320Z,-3.27
2019-01-25T08:25:38.073Z,-3.08
2019-01-25T08:28:05.767Z,-2.88
2019-01-25T08:30:33.352Z,-2.58
2019-01-25T08:33:01.167Z,-2.27
2019-01-25T08:35:28.819Z,-1.97
2019-01-25T08:37:56.502Z,-1.70
2019-01-25T08:40:24.202Z,-1.68
2019-01-25T08:42:51.970Z,-1.70
2019-01-25T08:45:19.798Z,-1.22
2019-01-25T08:47:47.549Z,-1.20
2019-01-25T08:50:17.446Z,-0.95
2019-01-25T08:52:45.237Z,-1.00
2019-01-25T08:55:13.625Z,-1.12
2019-01-25T08:57:41.417Z,-1.02
2019-01-25T09:00:12.375Z,-0.58
2019-01-25T09:02:40.087Z,-0.13
2019-01-25T09:05:08.748Z,0.16
2019-01-25T09:07:36.384Z,0.07
2019-01-25T09:10:06.096Z,0.38
2019-01-25T09:12:33.745Z,0.21
2019-01-25T09:15:01.357Z,0.30
2019-01-25T09:17:30.417Z,0.34
2019-01-25T09:19:58.026Z,-0.04
2019-01-25T09:22:25.738Z,0.32
2019-01-25T09:24:53.339Z,0.03
2019-01-25T09:27:21.014Z,-0.30
2019-01-25T09:29:48.686Z,-0.72
2019-01-25T09:32:16.407Z,-0.59
2019-01-25T09:34:43.983Z,-0.88
2019-01-25T09:37:11.579Z,-0.68
2019-01-25T09:39:39.142Z,-0.52
2019-01-25T09:42:09.673Z,-0.55
2019-01-25T09:44:37.365Z,-0.72
2019-01-25T09:47:04.987Z,-0.97
2019-01-25T09:49:32.576Z,-1.16
2019-01-25T09:52:00.189Z,-1.36
2019-01-25T09:54:27.730Z,-1.40
2019-01-25T09:56:55.438Z,-1.32
2019-01-25T09:59:23.020Z,-1.30
2019-01-25T10:01:50.778Z,-1.18
2019-01-25T10:04:18.545Z,-1.37
2019-01-25T10:06:46.719Z,-1.14
2019-01-25T10:09:14.283Z,-0.89
2019-01-25T10:11:41.992Z,-0.38
2019-01-25T10:14:09.609Z,0.13
2019-01-25T10:16:37.240Z,0.43
2019-01-25T10:19:04.910Z,0.71
2019-01-25T10:21:32.576Z,0.89
2019-01-25T10:24:00.151Z,1.41
2019-01-25T10:26:27.948Z,1.73
2019-01-25T10:28:55.511Z,1.83
2019-01-25T10:31:23.234Z,1.91
2019-01-25T10:33:52.211Z,2.22
2019-01-25T10:36:19.897Z,1.51
2019-01-25T10:38:47.501Z,1.43
2019-01-25T10:41:15.149Z,1.81
2019-01-25T10:43:42.771Z,1.97
2019-01-25T10:46:11.402Z,2.00
2019-01-25T10:48:38.982Z,1.83
2019-01-25T10:51:06.681Z,2.00
2019-01-25T10:53:34.319Z,2.57
2019-01-25T10:56:02.114Z,2.83
2019-01-25T10:58:29.824Z,3.00
2019-01-25T11:00:57.459Z,2.73
2019-01-25T11:03:25.093Z,2.97
2019-01-25T11:05:52.865Z,2.75
2019-01-25T11:08:20.582Z,2.91
2019-01-25T11:10:48.270Z,2.67
2019-01-25T11:13:15.860Z,2.66
2019-01-25T11:15:43.556Z,2.18
2019-01-25T11:18:11.242Z,2.49
2019-01-25T11:20:38.927Z,2.44
2019-01-25T11:23:06.535Z,2.38
2019-01-25T11:25:36.564Z,2.44
2019-01-25T11:28:04.408Z,2.42
2019-01-25T11:30:32.246Z,2.45
2019-01-25T11:32:59.880Z,2.51
2019-01-25T11:35:27.630Z,2.50
2019-01-25T11:37:55.200Z,2.58
2019-01-25T11:40:25.321Z,2.60
2019-01-25T11:42:53.797Z,2.60
2019-01-25T11:45:21.487Z,2.54
2019-01-25T11:47:49.246Z,2.83
2019-01-25T11:50:17.261Z,2.91
2019-01-25T11:52:44.923Z,2.92
2019-01-25T11:55:12.697Z,2.91
2019-01-25T11:57:40.333Z,2.59
2019-01-25T12:00:15.039Z,2.53
2019-01-25T12:02:45.127Z,2.42
2019-01-25T12:05:13.824Z,2.32
2019-01-25T12:07:41.575Z,2.39
2019-01-25T12:10:10.841Z,2.29
2019-01-25T12:12:38.414Z,2.28
2019-01-25T12:15:09.063Z,2.29
2019-01-25T12:17:36.768Z,1.99
2019-01-25T12:20:06.378Z,2.20
2019-01-25T12:22:38.642Z,2.27
2019-01-25T12:25:07.311Z,2.26
2019-01-25T12:27:34.910Z,2.19
2019-01-25T12:30:03.735Z,2.19
2019-01-25T12:32:31.541Z,2.21
2019-01-25T12:34:59.228Z,2.32
2019-01-25T12:37:26.758Z,2.22
2019-01-25T12:39:54.491Z,2.73
2019-01-25T12:42:22.038Z,3.01
2019-01-25T12:44:49.832Z,3.28
2019-01-25T12:47:17.358Z,3.19
2019-01-25T12:49:45.006Z,3.32
2019-01-25T12:52:12.671Z,3.66
2019-01-25T12:54:40.317Z,3.64
2019-01-25T12:57:07.931Z,3.45
2019-01-25T12:59:35.981Z,3.60
2019-01-25T13:02:03.787Z,3.50
2019-01-25T13:04:31.482Z,3.43
2019-01-25T13:06:59.036Z,3.45
2019-01-25T13:09:26.615Z,3.72
2019-01-25T13:11:54.468Z,3.74
2019-01-25T13:14:22.041Z,4.03
2019-01-25T13:16:50.846Z,4.14
2019-01-25T13:19:18.552Z,4.18
2019-01-25T13:21:46.177Z,4.14
2019-01-25T13:24:13.752Z,4.36
2019-01-25T13:26:41.518Z,4.42
2019-01-25T13:29:09.100Z,4.23
2019-01-25T13:31:36.830Z,4.33
2019-01-25T13:34:04.707Z,4.43
2019-01-25T13:36:32.637Z,4.11
2019-01-25T13:39:00.742Z,4.42
2019-01-25T13:41:30.523Z,4.27
2019-01-25T13:43:58.714Z,4.27
2019-01-25T13:46:28.296Z,4.32
2019-01-25T13:48:56.286Z,4.14
2019-01-25T13:51:24.477Z,4.56
2019-01-25T13:53:52.165Z,4.43
2019-01-25T13:56:19.925Z,4.02
2019-01-25T13:58:47.649Z,4.03
2019-01-25T14:01:15.506Z,3.95
2019-01-25T14:03:43.356Z,3.94
2019-01-25T14:06:11.765Z,3.94
2019-01-25T14:08:40.776Z,4.02
2019-01-25T14:11:08.914Z,3.55
2019-01-25T14:13:36.964Z,3.78
2019-01-25T14:16:05.147Z,4.16
2019-01-25T14:18:33.086Z,4.75
2019-01-25T14:21:01.018Z,5.00
2019-01-25T14:23:29.333Z,5.08
2019-01-25T14:25:58.605Z,5.43
2019-01-25T14:28:26.684Z,5.36
2019-01-25T14:30:54.813Z,5.31
2019-01-25T14:33:22.533Z,5.38
2019-01-25T14:35:52.088Z,5.41
2019-01-25T14:38:19.789Z,5.42
2019-01-25T14:40:47.483Z,5.15
2019-01-25T14:43:15.210Z,5.47
2019-01-25T14:45:42.864Z,5.36
2019-01-25T14:48:10.646Z,5.44
2019-01-25T14:50:38.671Z,5.14
2019-01-25T14:53:07.242Z,4.76
2019-01-25T14:55:34.995Z,4.41
2019-01-25T14:58:02.675Z,4.52
2019-01-25T15:00:30.231Z,4.16
2019-01-25T15:02:57.935Z,4.20
2019-01-25T15:05:25.539Z,3.78
2019-01-25T15:07:53.230Z,3.22
2019-01-25T15:10:23.083Z,3.04
2019-01-25T15:12:52.404Z,3.17
2019-01-25T15:15:21.469Z,3.04
2019-01-25T15:17:49.630Z,2.87
2019-01-25T15:20:19.297Z,2.43
2019-01-25T15:22:47.260Z,2.30
2019-01-25T15:25:15.241Z,2.28
2019-01-25T15:27:43.351Z,2.22
2019-01-25T15:30:16.755Z,2.10
2019-01-25T15:32:44.790Z,1.82
2019-01-25T15:35:13.956Z,1.79
2019-01-25T15:37:41.756Z,1.64
2019-01-25T15:40:11.326Z,1.58
2019-01-25T15:42:39.453Z,1.29
2019-01-25T15:45:09.921Z,1.17
2019-01-25T15:47:37.755Z,1.13
2019-01-25T15:50:10.009Z,1.01
2019-01-25T15:52:37.575Z,0.88
2019-01-25T15:55:05.819Z,0.98
2019-01-25T15:57:33.490Z,0.77
2019-01-25T16:00:01.138Z,0.68
2019-01-25T16:02:28.884Z,0.63
2019-01-25T16:04:56.557Z,0.54
2019-01-25T16:07:24.156Z,0.41
2019-01-25T16:09:51.879Z,0.42
2019-01-25T16:12:19.600Z,0.38
2019-01-25T16:14:47.338Z,0.38
2019-01-25T16:17:15.592Z,0.28
2019-01-25T16:19:43.554Z,0.21
2019-01-25T16:22:11.488Z,0.14
2019-01-25T16:24:39.547Z,0.00
2019-01-25T16:27:07.142Z,-0.05
2019-01-25T16:29:34.817Z,-0.02
2019-01-25T16:32:02.411Z,-0.16
2019-01-25T16:34:30.015Z,-0.23
2019-01-25T16:36:57.705Z,-0.22
2019-01-25T16:39:25.343Z,-0.20
2019-01-25T16:41:52.963Z,-0.19
2019-01-25T16:44:25.574Z,-0.20
2019-01-25T16:46:50.171Z,-0.19
2019-01-25T16:49:17.879Z,-0.23
2019-01-25T16:51:45.465Z,-0.49
2019-01-25T16:54:13.181Z,-0.68
2019-01-25T16:56:40.983Z,-0.77
2019-01-25T16:59:09.009Z,-0.96
2019-01-25T17:01:36.980Z,-1.23
2019-01-25T17:04:05.004Z,-1.20
2019-01-25T17:06:32.959Z,-1.33
2019-01-25T17:09:00.965Z,-1.39
2019-01-25T17:11:29.039Z,-1.56
2019-01-25T17:13:57.227Z,-1.53
2019-01-25T17:16:25.320Z,-1.65
2019-01-25T17:18:53.434Z,-1.69
2019-01-25T17:21:21.344Z,-1.69
2019-01-25T17:23:49.420Z,-1.68
2019-01-25T17:26:17.803Z,-1.68
2019-01-25T17:28:46.017Z,-1.67
2019-01-25T17:31:13.758Z,-1.69
2019-01-25T17:33:42.695Z,-1.74
2019-01-25T17:36:10.431Z,-1.91
2019-01-25T17:38:38.328Z,-2.01
2019-01-25T17:41:06.089Z,-2.18
2019-01-25T17:43:33.837Z,-2.15
2019-01-25T17:46:01.395Z,-2.26
2019-01-25T17:48:29.129Z,-2.25
2019-01-25T17:50:56.729Z,-2.29
2019-01-25T17:53:24.451Z,-2.28
2019-01-25T17:55:54.610Z,-2.42
2019-01-25T17:58:22.256Z,-2.50
2019-01-25T18:00:54.431Z,-2.57
2019-01-25T18:03:24.561Z,-2.55
2019-01-25T18:05:52.167Z,-2.69
2019-01-25T18:08:19.769Z,-2.66
2019-01-25T18:10:48.464Z,-2.75
2019-01-25T18:13:16.168Z,-2.98
2019-01-25T18:15:43.832Z,-3.22
2019-01-25T18:18:11.692Z,-3.20
2019-01-25T18:20:39.365Z,-3.21
2019-01-25T18:23:07.073Z,-3.33
2019-01-25T18:25:38.423Z,-3.34
2019-01-25T18:28:07.788Z,-3.35
2019-01-25T18:30:42.382Z,-3.28
2019-01-25T18:33:10.005Z,-3.32
2019-01-25T18:35:37.602Z,-3.38
2019-01-25T18:38:05.437Z,-3.49
2019-01-25T18:40:36.011Z,-3.44
2019-01-25T18:43:04.231Z,-3.44
2019-01-25T18:45:31.910Z,-3.43
2019-01-25T18:47:59.680Z,-3.41
2019-01-25T18:50:27.361Z,-3.40
2019-01-25T18:52:55.051Z,-3.36
2019-01-25T18:55:22.652Z,-3.36
2019-01-25T18:57:50.328Z,-3.38
2019-01-25T19:00:18.901Z,-3.25
2019-01-25T19:02:46.532Z,-3.25
2019-01-25T19:05:14.736Z,-3.27
2019-01-25T19:07:42.404Z,-3.25
2019-01-25T19:10:13.324Z,-3.20
2019-01-25T19:12:40.942Z,-3.11
2019-01-25T19:15:10.590Z,-3.10
2019-01-25T19:17:38.401Z,-3.04
2019-01-25T19:20:08.412Z,-3.06
2019-01-25T19:22:36.104Z,-2.84
2019-01-25T19:25:04.624Z,-2.80
2019-01-25T19:27:32.332Z,-2.74
2019-01-25T19:29:59.897Z,-2.64
2019-01-25T19:32:27.706Z,-2.56
2019-01-25T19:34:55.326Z,-2.47
2019-01-25T19:37:23.080Z,-2.42
2019-01-25T19:39:50.762Z,-2.49
2019-01-25T19:42:18.565Z,-2.46
2019-01-25T19:44:46.295Z,-2.47
2019-01-25T19:47:14.050Z,-2.41
2019-01-25T19:49:41.799Z,-2.43
2019-01-25T19:52:09.818Z,-2.38
2019-01-25T19:54:37.625Z,-2.29
2019-01-25T19:57:05.287Z,-2.29
2019-01-25T19:59:33.063Z,-2.19
2019-01-25T20:02:00.917Z,-2.16
2019-01-25T20:04:28.765Z,-2.09
2019-01-25T20:06:56.498Z,-2.03
2019-01-25T20:09:24.135Z,-1.98
2019-01-25T20:11:51.829Z,-1.90
2019-01-25T20:14:19.522Z,-1.97
2019-01-25T20:16:47.271Z,-1.90
2019-01-25T20:19:15.112Z,-1.90
2019-01-25T20:21:44.019Z,-1.94
2019-01-25T20:24:11.830Z,-1.88
2019-01-25T20:26:39.529Z,-1.77
2019-01-25T20:29:10.531Z,-1.78
2019-01-25T20:31:38.390Z,-1.78
2019-01-25T20:34:06.069Z,-1.79
2019-01-25T20:36:34.124Z,-1.77
2019-01-25T20:39:03.707Z,-1.82
2019-01-25T20:41:33.142Z,-1.91
2019-01-25T20:44:00.906Z,-1.85
2019-01-25T20:46:28.628Z,-1.77
2019-01-25T20:48:56.424Z,-1.82
2019-01-25T20:51:24.289Z,-1.77
2019-01-25T20:53:52.105Z,-1.81
2019-01-25T20:56:19.970Z,-1.78
2019-01-25T20:58:47.751Z,-1.77
2019-01-25T21:01:15.784Z,-1.80
2019-01-25T21:03:43.482Z,-1.78
2019-01-25T21:06:11.534Z,-1.80
2019-01-25T21:08:39.201Z,-1.75
2019-01-25T21:11:07.052Z,-1.82
2019-01-25T21:13:34.871Z,-1.88
2019-01-25T21:16:02.609Z,-1.86
2019-01-25T21:18:30.330Z,-1.87
2019-01-25T21:20:58.038Z,-1.94
2019-01-25T21:23:25.640Z,-1.92
2019-01-25T21:25:53.367Z,-1.92
2019-01-25T21:28:20.969Z,-1.86
2019-01-25T21:30:48.700Z,-1.82
2019-01-25T21:33:16.281Z,-1.81
2019-01-25T21:35:43.989Z,-1.85
2019-01-25T21:38:11.715Z,-1.89
2019-01-25T21:40:39.536Z,-1.88
2019-01-25T21:43:07.169Z,-1.84
2019-01-25T21:45:42.661Z,-1.89
2019-01-25T21:48:11.338Z,-1.94
2019-01-25T21:50:40.402Z,-1.95
2019-01-25T21:53:08.140Z,-2.03
2019-01-25T21:55:35.892Z,-1.98
2019-01-25T21:58:05.637Z,-1.98
2019-01-25T22:00:33.957Z,-2.07
2019-01-25T22:03:01.786Z,-2.06
2019-01-25T22:05:29.660Z,-2.09
2019-01-25T22:07:58.548Z,-2.08
2019-01-25T22:10:38.191Z,-2.08
2019-01-25T22:13:05.908Z,-2.12
2019-01-25T22:15:34.752Z,-2.20
2019-01-25T22:18:02.743Z,-2.18
2019-01-25T22:20:30.534Z,-2.23
2019-01-25T22:22:58.315Z,-2.28
2019-01-25T22:25:26.017Z,-2.24
2019-01-25T22:27:55.148Z,-2.24
2019-01-25T22:30:23.607Z,-2.28
2019-01-25T22:32:51.313Z,-2.29
2019-01-25T22:35:19.220Z,-2.30
2019-01-25T22:37:47.179Z,-2.30
2019-01-25T22:40:17.172Z,-2.29
2019-01-25T22:42:44.757Z,-2.33
2019-01-25T22:45:14.433Z,-2.36
2019-01-25T22:47:42.070Z,-2.44
2019-01-25T22:50:13.176Z,-2.46
2019-01-25T22:52:40.789Z,-2.46
2019-01-25T22:55:10.446Z,-2.45
2019-01-25T22:57:38.166Z,-2.53
2019-01-25T23:00:51.504Z,-2.55
2019-01-25T23:03:22.664Z,-2.56
2019-01-25T23:06:44.109Z,-2.64
2019-01-25T23:09:15.194Z,-2.64
2019-01-25T23:11:42.914Z,-2.75
2019-01-25T23:14:10.542Z,-2.82
2019-01-25T23:16:40.035Z,-2.77
2019-01-25T23:19:07.783Z,-2.78
2019-01-25T23:21:35.505Z,-2.85
2019-01-25T23:24:03.349Z,-2.89
2019-01-25T23:26:31.017Z,-2.86
2019-01-25T23:28:58.567Z,-2.91
2019-01-25T23:31:27.219Z,-2.97
2019-01-25T23:33:54.821Z,-3.07
2019-01-25T23:36:22.562Z,-3.09
2019-01-25T23:38:50.230Z,-3.16
2019-01-25T23:41:17.930Z,-3.18
2019-01-25T23:43:45.628Z,-3.17
2019-01-25T23:46:13.970Z,-3.06
2019-01-25T23:48:41.968Z,-3.04
2019-01-25T23:51:09.649Z,-3.05
2019-01-25T23:53:38.196Z,-3.01
2019-01-25T23:56:05.864Z,-3.04
2019-01-25T23:58:33.439Z,-3.08
